• Join FlightAware (Why Join?)
  • Login
  • US Flag 
07:52AM EST


 

Airport Tracker/Info


-or-


 

Live Flight TrackerFlight Track Log ✈ N721EA ✈ 12-Jul-2013 ✈ 4A5 - KUTA

Flight Track Log - Related Links

Times and Time Zones

All times are in EDT time to prevent confusion due to time zone crossing. See the N721EA flight status page for this flight to view local times or setup timezone preferences in your user account.

Time Position Orientation Groundspeed Altitude Reporting Facility
EDT Latitude Longitude Course Direction KTS MPH feet Rate Location/Type
01:29PM 35.7453 -92.5592 126° Southeast 251 289 7,300  Level Memphis Center
01:30PM 35.7192 -92.4997 118° Southeast 228 262 8,800 1,320 Climbing Memphis Center
01:31PM 35.6931 -92.4428 119° Southeast 206 237 10,000 1,140 Climbing Memphis Center
01:32PM 35.6708 -92.3836 115° Southeast 192 221 11,100 1,080 Climbing Memphis Center
01:33PM 35.6489 -92.3217 114° Southeast 187 215 12,200 1,080 Climbing Memphis Center
01:34PM 35.7149 -92.2967 122° Southeast  Level Estimated
01:34PM 35.6228 -92.2622 118° Southeast 187 215 13,300  Level Memphis Center
01:35PM 35.5944 -92.2003 119° Southeast 192 221 14,200 840 Climbing Memphis Center
01:36PM 35.5642 -92.1386 121° Southeast 205 236 15,000 360 Climbing Memphis Center
01:37PM 35.5297 -92.0714 122° Southeast 212 244 15,000  Level Memphis Center
01:38PM 35.4931 -91.9992 122° Southeast 232 267 15,000  Level Memphis Center
01:39PM 35.4564 -91.9219 120° Southeast 245 282 15,000  Level Memphis Center
01:40PM 35.4219 -91.8450 119° Southeast 256 295 15,000  Level Memphis Center
01:41PM 35.3853 -91.7681 120° Southeast 256 295 15,000  Level Memphis Center
01:42PM 35.3486 -91.6936 121° Southeast 256 295 15,000  Level Memphis Center
01:43PM 35.3097 -91.6167 122° Southeast 262 302 15,000  Level Memphis Center
01:44PM 35.2731 -91.5422 121° Southeast 262 302 15,000  Level Memphis Center
01:45PM 35.2383 -91.4656 119° Southeast 257 296 15,000  Level Memphis Center
01:46PM 35.1992 -91.3914 123° Southeast 257 296 15,000  Level Memphis Center
01:47PM 35.1644 -91.3147 119° Southeast 257 296 15,000  Level Memphis Center
01:48PM 35.1314 -91.2431 119° Southeast 257 296 15,000  Level Memphis Center
01:49PM 35.0944 -91.1717 122° Southeast 257 296 15,000 -240 Level Memphis Center
01:50PM 35.0575 -91.0953 121° Southeast 257 296 14,600 -840 Descending Memphis Center
01:51PM 35.0161 -91.0111 121° Southeast 257 296 13,400 -1,440 Descending Memphis Center
01:52PM 34.9747 -90.9325 123° Southeast 270 311 11,800 -1,740 Descending Memphis Center
01:53PM 34.9375 -90.8486 118° Southeast 275 316 10,000 -2,040 Descending Memphis Center
01:54PM 34.8961 -90.7697 123° Southeast 275 316 7,800 -2,100 Descending Memphis Center
01:55PM 34.8589 -90.6936 121° Southeast 275 316 5,800 -1,800 Descending Memphis Center
01:56PM 34.8236 -90.6228 121° Southeast 263 303 4,300 -1,380 Descending Memphis Center
01:57PM 34.7903 -90.5492 119° Southeast 257 296 3,100 -720 Descending Memphis Center
01:58PM 34.7569 -90.4861 123° Southeast 237 273 2,900 -180 Descending Memphis Center
01:59PM 34.7236 -90.4278 125° Southeast 237 273 2,800 1,500 Descending Memphis Center
02:00PM 34.6881 -90.3622 123° Southeast 237 273 6,000 1,560 Climbing Memphis Center
02:01PM 34.6506 -90.2939 124° Southeast 237 273 6,000  Level Memphis Center
02:02PM 34.6150 -90.2308 124° Southeast 237 273 6,000  Level Memphis Center
02:03PM 34.6067 -90.2183 129° Southeast 237 273 6,000  Level Memphis Center
02:05PM 34.6067 -90.2183 219° Southwest 237 273 6,000  Level Memphis Center